< < Back
Terminal Aerodrome Forecast


Current Version              Previous Versions:   1  2  3  4  5  6  7  8  9  

Terminal Aerodrome Forecast

979
FTUS42 KGSP 251121
TAFAND
TAF
KAND 251121Z 2512/2612 31004KT P6SM SKC
     FM252000 25006KT P6SM SKC=

Latest METAR

113
SAUS70 KWBC 252200 RRA
MTRAND
METAR KAND 252156Z AUTO 24005KT 10SM CLR 22/08 A2997 RMK AO2 SLP144
T02220078


USA.gov is the U.S. government's official web portal to all federal, state and local government web resources and services.